首页
METAR-TAF:

METAR-TAF

机场 :

Island Lake, 曼尼托巴, 加拿大

纬度: 53-51N, 经度: 094-39W, 海拔: 237米

当前天气观测

该预报发布于1小时和11分钟前的09:00 UTC
静风
温度 15°C
湿度 94%
气压 1021 hPa
能見度: 14.5公里
天空无云

METAR: CYIV 010900Z AUTO 00000KT 9SM CLR 15/14 A3016 RMK SLP219

时间: 05:11 (10:11 UTC)

预报

该预报发布于3小时和31分钟前的06:40 UTC
预报有效从01日的 07点(UTC)到 01日的 19点(UTC)
风速3节,风向多变
能見度: 10公里
少量云层高于6000英尺
短暂存在
从 01日的 07点(UTC)到 01日的 19点(UTC)
能見度: 3.2公里
烟, 轻雾
成为
从 01日的 14点(UTC)到 01日的 16点(UTC)
风速8节,风向西转西北

TAF: CYIV 010640Z 0107/0119 VRB03KT P6SM FEW060 TEMPO 0107/0119 2SM FU BR BECMG 0114/0116 30008KT RMK FCST BASED ON AUTO OBS. NXT FCST BY 011300Z

超过4000个机场的气象观测和天气预报(METAR&TAF报告)。

可查询的气象台以黄色和红色小点在地图上表示。

将鼠标移到小点上方,可查看气象台名称。

然后点击查看天气观测和预报。

如需切换地图:点击带黑十字的绿色按钮放大地图;点击带横线的绿色按钮缩小地图;或者点击绿色箭头查看邻近地区的地图。


METAR-TAF: